Time;durP1;ratioP1;P1;durP2;ratioP2;P2;SDS_P1;SDS_P2;PMS_P1;PMS_P2;Temp;Humidity;BMP_temperature;BMP_pressure;BME280_temperature;BME280_humidity;BME280_pressure;Samples;Min_cycle;Max_cycle;Signal;HPM_P1;HPM_P2
2024/02/03 00:01:02;;;;;;;17.35;12.15;;;;;;;;;;5030824;28;20033;-47
2024/02/03 00:03:28;;;;;;;28.52;18.92;;;;;;;;;;5030332;28;20403;-50
2024/02/03 00:05:55;;;;;;;24.92;18.42;;;;;;;;;;5031010;28;20083;-49
2024/02/03 00:08:21;;;;;;;22.40;13.82;;;;;;;;;;5030604;28;20399;-50
2024/02/03 00:10:47;;;;;;;18.90;13.45;;;;;;;;;;5030214;28;20029;-49
2024/02/03 00:13:13;;;;;;;13.60;8.63;;;;;;;;;;5029809;28;20025;-49
2024/02/03 00:15:39;;;;;;;18.98;12.77;;;;;;;;;;5030008;28;20573;-47
2024/02/03 00:18:05;;;;;;;14.95;10.20;;;;;;;;;;5030303;28;20021;-47
2024/02/03 00:20:31;;;;;;;17.02;12.43;;;;;;;;;;5030317;28;20030;-45
2024/02/03 00:22:57;;;;;;;15.35;9.73;;;;;;;;;;5034787;28;20034;-49
2024/02/03 00:25:23;;;;;;;17.88;11.88;;;;;;;;;;5030382;28;20108;-46
2024/02/03 00:27:49;;;;;;;18.38;10.98;;;;;;;;;;5025740;28;20037;-48
2024/02/03 00:30:15;;;;;;;24.05;14.90;;;;;;;;;;5062032;23;20114;-57
2024/02/03 00:32:41;;;;;;;20.10;13.48;;;;;;;;;;5045799;28;20061;-54
2024/02/03 00:35:07;;;;;;;14.70;10.82;;;;;;;;;;5046865;28;20052;-56
2024/02/03 00:37:33;;;;;;;18.40;14.30;;;;;;;;;;5045601;28;20029;-55
2024/02/03 00:39:59;;;;;;;20.95;12.45;;;;;;;;;;5047061;28;20021;-57
2024/02/03 00:42:25;;;;;;;15.25;10.70;;;;;;;;;;5047063;28;20103;-55
2024/02/03 00:44:51;;;;;;;17.65;12.10;;;;;;;;;;5048715;28;20099;-56
2024/02/03 00:47:17;;;;;;;16.38;11.23;;;;;;;;;;5048173;28;20021;-57
2024/02/03 00:49:44;;;;;;;23.23;16.00;;;;;;;;;;5049376;28;20494;-57
2024/02/03 00:52:10;;;;;;;14.45;10.85;;;;;;;;;;5047182;28;20025;-57
2024/02/03 00:54:36;;;;;;;28.85;17.83;;;;;;;;;;5049265;28;20027;-58
2024/02/03 00:57:02;;;;;;;19.90;13.93;;;;;;;;;;5049116;28;20542;-59
2024/02/03 00:59:28;;;;;;;18.83;13.15;;;;;;;;;;5048820;28;20123;-58
2024/02/03 01:01:54;;;;;;;14.52;9.95;;;;;;;;;;5048612;28;20054;-54
2024/02/03 01:04:20;;;;;;;25.85;15.90;;;;;;;;;;5047869;28;20761;-57
2024/02/03 01:06:46;;;;;;;15.98;11.13;;;;;;;;;;5048941;28;20045;-57
2024/02/03 01:09:17;;;;;;;17.33;11.55;;;;;;;;;;5049122;28;20100;-56
2024/02/03 01:11:43;;;;;;;18.20;14.55;;;;;;;;;;5048431;28;20494;-56
2024/02/03 01:14:09;;;;;;;14.40;9.23;;;;;;;;;;5049215;28;20103;-58
2024/02/03 01:16:35;;;;;;;23.02;14.30;;;;;;;;;;5049061;28;20021;-57
2024/02/03 01:19:01;;;;;;;22.48;12.98;;;;;;;;;;5049720;28;20021;-58
2024/02/03 01:21:27;;;;;;;20.70;13.68;;;;;;;;;;5048640;28;20412;-59
2024/02/03 01:23:55;;;;;;;26.13;16.00;;;;;;;;;;5048846;28;20082;-58
2024/02/03 01:26:21;;;;;;;17.38;13.38;;;;;;;;;;5047752;28;20029;-58
2024/02/03 01:28:47;;;;;;;26.65;15.45;;;;;;;;;;5048792;28;20517;-59
2024/02/03 01:31:13;;;;;;;18.30;12.77;;;;;;;;;;5048649;28;20029;-58
2024/02/03 01:33:39;;;;;;;13.18;8.30;;;;;;;;;;5046026;28;20033;-54
2024/02/03 01:36:05;;;;;;;22.65;15.65;;;;;;;;;;5048803;28;20067;-58
2024/02/03 01:38:31;;;;;;;19.10;11.80;;;;;;;;;;5047351;28;20052;-58
2024/02/03 01:40:57;;;;;;;16.90;10.90;;;;;;;;;;5048534;28;20468;-56
2024/02/03 01:43:23;;;;;;;17.27;10.65;;;;;;;;;;5048375;28;20042;-57
2024/02/03 01:45:50;;;;;;;25.13;14.48;;;;;;;;;;5049000;28;20163;-58
2024/02/03 01:48:16;;;;;;;28.05;14.35;;;;;;;;;;5049824;28;20028;-57
2024/02/03 01:50:46;;;;;;;13.13;8.48;;;;;;;;;;5052630;28;20025;-57
2024/02/03 01:53:13;;;;;;;18.90;13.85;;;;;;;;;;5052007;28;20506;-58
2024/02/03 01:55:39;;;;;;;16.98;12.43;;;;;;;;;;5051568;28;20025;-57
2024/02/03 01:58:05;;;;;;;17.40;9.15;;;;;;;;;;5051674;28;20028;-58
2024/02/03 02:00:31;;;;;;;13.65;9.25;;;;;;;;;;5052832;28;20049;-57
2024/02/03 02:02:58;;;;;;;21.90;12.73;;;;;;;;;;5052203;28;20087;-56
2024/02/03 02:05:24;;;;;;;23.15;15.00;;;;;;;;;;5051306;28;20032;-58
2024/02/03 02:07:50;;;;;;;22.83;14.18;;;;;;;;;;5051749;28;20493;-56
2024/02/03 02:10:16;;;;;;;17.20;12.10;;;;;;;;;;5051018;28;20033;-56
2024/02/03 02:12:43;;;;;;;17.40;11.73;;;;;;;;;;5051670;28;20033;-57
2024/02/03 02:15:09;;;;;;;18.20;12.38;;;;;;;;;;5051000;28;20139;-57
2024/02/03 02:17:36;;;;;;;22.20;14.63;;;;;;;;;;5052186;28;20107;-57
2024/02/03 02:20:09;;;;;;;13.65;8.90;;;;;;;;;;5052009;28;20021;-59
2024/02/03 02:22:36;;;;;;;19.70;10.57;;;;;;;;;;5051648;28;20610;-59
2024/02/03 02:25:03;;;;;;;21.50;12.73;;;;;;;;;;5052270;28;20450;-58
2024/02/03 02:27:29;;;;;;;17.83;12.07;;;;;;;;;;5053861;28;20122;-59
2024/02/03 02:29:55;;;;;;;17.70;9.60;;;;;;;;;;5050559;28;20039;-58
2024/02/03 02:32:21;;;;;;;15.32;8.70;;;;;;;;;;5051177;28;20060;-57
2024/02/03 02:34:47;;;;;;;19.98;12.88;;;;;;;;;;5051991;28;20542;-59
2024/02/03 02:37:13;;;;;;;17.58;10.77;;;;;;;;;;5051596;28;20032;-58
2024/02/03 02:39:39;;;;;;;24.77;13.85;;;;;;;;;;5051875;28;20100;-58
2024/02/03 02:42:06;;;;;;;16.50;9.73;;;;;;;;;;5051109;28;20068;-55
2024/02/03 02:44:32;;;;;;;23.13;14.50;;;;;;;;;;5050414;28;20025;-56
2024/02/03 02:46:58;;;;;;;21.65;12.50;;;;;;;;;;5051910;28;20033;-58
2024/02/03 02:49:24;;;;;;;15.15;9.32;;;;;;;;;;5050381;28;20025;-57
2024/02/03 02:51:50;;;;;;;14.35;9.80;;;;;;;;;;5050964;28;20065;-59
2024/02/03 02:54:16;;;;;;;18.95;10.68;;;;;;;;;;5050259;28;20035;-58
2024/02/03 02:56:42;;;;;;;21.10;12.52;;;;;;;;;;5051584;28;20100;-55
2024/02/03 02:59:08;;;;;;;19.88;13.70;;;;;;;;;;5051706;28;20128;-58
2024/02/03 03:01:34;;;;;;;18.80;15.20;;;;;;;;;;5049916;28;20025;-59
2024/02/03 03:04:00;;;;;;;17.60;10.57;;;;;;;;;;5050125;28;20036;-57
2024/02/03 03:06:26;;;;;;;15.20;11.55;;;;;;;;;;5050114;28;20036;-58
2024/02/03 03:08:52;;;;;;;19.33;12.93;;;;;;;;;;5051214;28;20037;-59
2024/02/03 03:11:19;;;;;;;17.77;12.57;;;;;;;;;;5050854;28;20032;-57
2024/02/03 03:13:45;;;;;;;20.48;14.88;;;;;;;;;;5051098;28;20049;-57
2024/02/03 03:16:11;;;;;;;15.10;12.80;;;;;;;;;;5051741;28;20430;-58
2024/02/03 03:18:40;;;;;;;21.67;17.83;;;;;;;;;;5051337;28;20052;-57
2024/02/03 03:21:07;;;;;;;17.85;16.05;;;;;;;;;;5051040;28;20021;-59
2024/02/03 03:23:33;;;;;;;19.75;17.00;;;;;;;;;;5049409;28;20065;-57
2024/02/03 03:25:59;;;;;;;25.02;22.35;;;;;;;;;;5049817;28;20131;-57
2024/02/03 03:28:25;;;;;;;18.92;17.13;;;;;;;;;;5050804;28;20025;-57
2024/02/03 03:30:51;;;;;;;21.25;19.25;;;;;;;;;;5050437;28;20494;-58
2024/02/03 03:33:17;;;;;;;30.80;26.10;;;;;;;;;;5050240;28;20033;-59
2024/02/03 03:35:44;;;;;;;24.13;22.02;;;;;;;;;;5050716;28;20048;-58
2024/02/03 03:38:11;;;;;;;27.58;25.08;;;;;;;;;;5049430;28;20025;-59
2024/02/03 03:40:37;;;;;;;30.45;27.98;;;;;;;;;;5050446;28;20075;-54
2024/02/03 03:43:04;;;;;;;40.70;37.08;;;;;;;;;;5048527;28;20110;-58
2024/02/03 03:45:30;;;;;;;35.08;32.28;;;;;;;;;;5050324;28;20414;-56
2024/02/03 03:47:57;;;;;;;33.17;30.58;;;;;;;;;;5050562;28;20024;-56
2024/02/03 03:50:23;;;;;;;40.50;36.67;;;;;;;;;;5050320;28;20021;-56
2024/02/03 03:52:49;;;;;;;35.53;32.70;;;;;;;;;;5048400;28;20506;-58
2024/02/03 03:55:15;;;;;;;36.33;33.45;;;;;;;;;;5050450;28;20080;-59
2024/02/03 03:57:41;;;;;;;39.45;35.92;;;;;;;;;;5050396;28;20025;-58
2024/02/03 04:00:09;;;;;;;35.08;32.47;;;;;;;;;;5050040;28;20018;-57
2024/02/03 04:02:35;;;;;;;34.45;31.88;;;;;;;;;;5049507;28;20110;-57
2024/02/03 04:05:01;;;;;;;35.83;33.15;;;;;;;;;;5048860;28;20029;-56
2024/02/03 04:07:27;;;;;;;45.00;40.38;;;;;;;;;;5048745;28;20382;-59
2024/02/03 04:09:53;;;;;;;36.30;33.40;;;;;;;;;;5049083;28;20031;-59
2024/02/03 04:12:19;;;;;;;38.03;35.13;;;;;;;;;;5047392;28;20033;-57
2024/02/03 04:14:46;;;;;;;33.30;30.73;;;;;;;;;;5050391;28;20028;-58
2024/02/03 04:17:13;;;;;;;43.92;39.58;;;;;;;;;;5050035;28;20044;-56
2024/02/03 04:19:39;;;;;;;35.85;33.00;;;;;;;;;;5050053;28;20021;-60
2024/02/03 04:22:05;;;;;;;39.05;35.88;;;;;;;;;;5049783;28;20112;-55
2024/02/03 04:24:31;;;;;;;35.38;32.65;;;;;;;;;;5051128;28;20518;-57
2024/02/03 04:26:57;;;;;;;38.33;35.35;;;;;;;;;;5055228;28;20037;-56
2024/02/03 04:29:23;;;;;;;37.42;34.38;;;;;;;;;;5058472;28;20028;-58
2024/02/03 04:31:49;;;;;;;42.70;39.25;;;;;;;;;;5059973;28;20032;-58
2024/02/03 04:34:19;;;;;;;39.38;35.78;;;;;;;;;;5061560;28;20494;-57
2024/02/03 04:36:45;;;;;;;36.17;33.38;;;;;;;;;;5059529;28;20017;-56
2024/02/03 04:39:11;;;;;;;37.03;34.25;;;;;;;;;;5049973;28;20549;-54
2024/02/03 04:41:37;;;;;;;36.78;33.75;;;;;;;;;;5047766;28;20501;-56
2024/02/03 04:44:03;;;;;;;51.60;38.95;;;;;;;;;;5049433;28;20082;-57
2024/02/03 04:46:29;;;;;;;40.58;37.03;;;;;;;;;;5049512;28;20025;-57
2024/02/03 04:48:55;;;;;;;41.20;37.70;;;;;;;;;;5049517;28;20029;-58
2024/02/03 04:51:21;;;;;;;36.88;34.08;;;;;;;;;;5049171;28;20064;-57
2024/02/03 04:53:47;;;;;;;38.80;35.80;;;;;;;;;;5048184;28;20112;-57
2024/02/03 04:56:13;;;;;;;41.35;38.05;;;;;;;;;;5049412;28;20640;-57
2024/02/03 04:58:39;;;;;;;37.97;35.08;;;;;;;;;;5049370;28;20021;-57
2024/02/03 05:01:05;;;;;;;39.03;36.08;;;;;;;;;;5048844;28;20051;-57
2024/02/03 05:03:32;;;;;;;42.60;38.92;;;;;;;;;;5048871;28;20021;-57
2024/02/03 05:06:02;;;;;;;44.47;40.80;;;;;;;;;;5049321;28;20037;-58
2024/02/03 05:08:28;;;;;;;42.20;38.03;;;;;;;;;;5047861;28;20044;-58
2024/02/03 05:10:53;;;;;;;44.75;41.28;;;;;;;;;;5047502;28;20390;-55
2024/02/03 05:13:19;;;;;;;41.25;38.08;;;;;;;;;;5048441;28;20074;-58
2024/02/03 05:15:45;;;;;;;45.80;41.67;;;;;;;;;;5048937;28;20053;-58
2024/02/03 05:18:11;;;;;;;47.15;43.17;;;;;;;;;;5048837;28;20430;-58
2024/02/03 05:20:37;;;;;;;41.65;38.40;;;;;;;;;;5048977;28;20079;-56
2024/02/03 05:23:03;;;;;;;42.35;39.13;;;;;;;;;;5048042;28;20028;-58
2024/02/03 05:25:29;;;;;;;47.28;43.15;;;;;;;;;;5049242;28;20022;-57
2024/02/03 05:27:55;;;;;;;43.90;40.35;;;;;;;;;;5049021;28;20021;-58
2024/02/03 05:30:21;;;;;;;43.88;40.47;;;;;;;;;;5048671;28;20112;-54
2024/02/03 05:32:47;;;;;;;43.55;40.10;;;;;;;;;;5047027;28;20161;-58
2024/02/03 05:35:13;;;;;;;40.90;37.83;;;;;;;;;;5049654;28;20040;-57
2024/02/03 05:37:39;;;;;;;41.35;38.15;;;;;;;;;;5048940;28;20017;-56
2024/02/03 05:40:06;;;;;;;43.05;39.53;;;;;;;;;;5049091;28;20078;-58
2024/02/03 05:42:32;;;;;;;45.97;42.30;;;;;;;;;;5046960;28;20021;-57
2024/02/03 05:44:58;;;;;;;42.47;39.35;;;;;;;;;;5049018;28;20032;-58
2024/02/03 05:47:25;;;;;;;43.42;39.97;;;;;;;;;;5049047;28;20036;-57
2024/02/03 05:49:51;;;;;;;43.13;39.83;;;;;;;;;;5048967;28;20487;-58
2024/02/03 05:52:17;;;;;;;44.65;41.35;;;;;;;;;;5047790;28;20036;-59
2024/02/03 05:54:43;;;;;;;41.22;38.20;;;;;;;;;;5048730;28;20108;-57
2024/02/03 05:57:13;;;;;;;41.28;38.28;;;;;;;;;;5048752;28;20025;-55
2024/02/03 05:59:42;;;;;;;43.13;39.78;;;;;;;;;;5048490;28;20654;-57
2024/02/03 06:02:08;;;;;;;43.72;40.53;;;;;;;;;;5047807;28;20033;-58
2024/02/03 06:04:34;;;;;;;41.00;38.03;;;;;;;;;;5048589;28;20549;-58
2024/02/03 06:07:00;;;;;;;42.13;39.05;;;;;;;;;;5047199;28;20051;-57
2024/02/03 06:09:26;;;;;;;40.80;37.70;;;;;;;;;;5048375;28;20029;-57
2024/02/03 06:11:52;;;;;;;42.80;39.60;;;;;;;;;;5046619;28;20077;-57
2024/02/03 06:14:18;;;;;;;44.28;40.67;;;;;;;;;;5048439;28;20087;-59
2024/02/03 06:16:44;;;;;;;40.88;37.88;;;;;;;;;;5048498;28;20060;-57
2024/02/03 06:19:10;;;;;;;46.38;42.85;;;;;;;;;;5048583;28;20017;-53
2024/02/03 06:21:36;;;;;;;42.78;39.53;;;;;;;;;;5047882;28;20681;-58
2024/02/03 06:24:02;;;;;;;44.22;40.75;;;;;;;;;;5047322;28;20029;-54
2024/02/03 06:26:30;;;;;;;42.90;39.63;;;;;;;;;;5047276;28;20090;-57
2024/02/03 06:28:57;;;;;;;40.63;37.63;;;;;;;;;;5047211;28;20494;-57
2024/02/03 06:31:23;;;;;;;43.55;40.17;;;;;;;;;;5048388;28;20506;-57
2024/02/03 06:33:49;;;;;;;41.60;38.30;;;;;;;;;;5047217;28;20021;-55
2024/02/03 06:36:15;;;;;;;42.75;39.53;;;;;;;;;;5050785;28;20654;-59
2024/02/03 06:38:41;;;;;;;39.78;36.78;;;;;;;;;;5050570;28;20021;-60
2024/02/03 06:41:10;;;;;;;38.75;35.85;;;;;;;;;;5051701;28;20040;-56
2024/02/03 06:43:40;;;;;;;40.08;37.08;;;;;;;;;;5050279;28;20023;-57
2024/02/03 06:46:06;;;;;;;40.00;37.10;;;;;;;;;;5052196;28;20135;-57
2024/02/03 06:48:32;;;;;;;38.40;35.50;;;;;;;;;;5051788;28;20029;-58
2024/02/03 06:50:58;;;;;;;38.42;35.53;;;;;;;;;;5051501;28;20021;-55
2024/02/03 06:53:24;;;;;;;39.25;36.35;;;;;;;;;;5051304;28;20109;-59
2024/02/03 06:55:50;;;;;;;40.17;37.17;;;;;;;;;;5051753;28;20444;-57
2024/02/03 06:58:16;;;;;;;39.75;36.75;;;;;;;;;;5051812;28;20498;-57
2024/02/03 07:00:42;;;;;;;39.50;36.50;;;;;;;;;;5051646;28;20052;-59
2024/02/03 07:03:08;;;;;;;38.72;35.83;;;;;;;;;;5051198;28;20458;-57
2024/02/03 07:05:34;;;;;;;38.35;35.45;;;;;;;;;;5051675;28;20025;-59
2024/02/03 07:08:01;;;;;;;37.72;34.92;;;;;;;;;;5051048;28;20071;-59
2024/02/03 07:10:27;;;;;;;37.22;34.42;;;;;;;;;;5050027;28;20025;-54
2024/02/03 07:12:54;;;;;;;36.30;33.50;;;;;;;;;;5050531;28;20021;-58
2024/02/03 07:15:20;;;;;;;36.50;33.70;;;;;;;;;;5051095;28;20540;-58
2024/02/03 07:17:46;;;;;;;38.58;35.67;;;;;;;;;;5051439;28;20033;-57
2024/02/03 07:20:12;;;;;;;39.40;36.50;;;;;;;;;;5051046;28;20017;-57
2024/02/03 07:22:38;;;;;;;37.33;34.53;;;;;;;;;;5050487;28;20104;-55
2024/02/03 07:25:05;;;;;;;37.08;34.28;;;;;;;;;;5051020;28;20591;-58
2024/02/03 07:27:31;;;;;;;37.47;34.67;;;;;;;;;;5049817;28;20090;-58
2024/02/03 07:29:57;;;;;;;36.50;33.70;;;;;;;;;;5049336;28;20524;-59
2024/02/03 07:32:23;;;;;;;36.92;34.13;;;;;;;;;;5050851;28;20041;-57
2024/02/03 07:34:49;;;;;;;38.10;35.30;;;;;;;;;;5049280;28;20078;-57
2024/02/03 07:37:15;;;;;;;36.20;33.50;;;;;;;;;;5052128;28;20111;-57
2024/02/03 07:39:41;;;;;;;35.85;33.15;;;;;;;;;;5051872;28;20025;-60
2024/02/03 07:42:08;;;;;;;35.72;33.03;;;;;;;;;;5050925;28;20437;-58
2024/02/03 07:44:34;;;;;;;36.72;34.00;;;;;;;;;;5051460;28;20021;-59
2024/02/03 07:47:00;;;;;;;36.10;33.40;;;;;;;;;;5051270;28;20135;-60
2024/02/03 07:49:26;;;;;;;36.17;33.47;;;;;;;;;;5051227;28;20294;-56
2024/02/03 07:51:52;;;;;;;36.85;34.05;;;;;;;;;;5050688;28;20052;-58
2024/02/03 07:54:18;;;;;;;36.78;34.03;;;;;;;;;;5051351;28;20707;-59
2024/02/03 07:56:44;;;;;;;36.33;33.53;;;;;;;;;;5049722;28;20098;-59
2024/02/03 07:59:10;;;;;;;35.70;33.00;;;;;;;;;;5050469;28;20104;-60
2024/02/03 08:01:36;;;;;;;37.50;34.70;;;;;;;;;;5049015;28;20464;-59
2024/02/03 08:04:02;;;;;;;34.72;32.08;;;;;;;;;;5050014;28;20020;-57
2024/02/03 08:06:28;;;;;;;36.85;34.05;;;;;;;;;;5051198;28;20082;-59
2024/02/03 08:08:54;;;;;;;36.13;33.42;;;;;;;;;;5050601;28;20081;-58
2024/02/03 08:11:20;;;;;;;36.45;33.65;;;;;;;;;;5050466;28;20383;-59
2024/02/03 08:13:46;;;;;;;37.33;34.53;;;;;;;;;;5048902;28;20085;-60
2024/02/03 08:16:12;;;;;;;36.38;33.60;;;;;;;;;;5050843;28;20032;-60
2024/02/03 08:18:38;;;;;;;36.70;34.00;;;;;;;;;;5050712;28;20021;-58
2024/02/03 08:21:04;;;;;;;36.15;33.45;;;;;;;;;;5050605;28;20032;-57
2024/02/03 08:23:30;;;;;;;36.60;33.90;;;;;;;;;;5050340;28;20028;-58
2024/02/03 08:25:56;;;;;;;36.97;34.17;;;;;;;;;;5049349;28;20029;-58
2024/02/03 08:28:22;;;;;;;35.70;33.00;;;;;;;;;;5050704;28;20033;-57
2024/02/03 08:30:48;;;;;;;35.17;32.47;;;;;;;;;;5050086;28;20032;-58
2024/02/03 08:33:14;;;;;;;34.10;31.50;;;;;;;;;;5049894;28;20033;-59
2024/02/03 08:35:40;;;;;;;34.83;32.13;;;;;;;;;;5050309;28;20021;-58
2024/02/03 08:38:06;;;;;;;35.22;32.53;;;;;;;;;;5049459;28;20050;-59
2024/02/03 08:40:32;;;;;;;35.30;32.60;;;;;;;;;;5050077;28;20040;-58
2024/02/03 08:42:58;;;;;;;36.15;33.35;;;;;;;;;;5049513;28;20498;-58
2024/02/03 08:45:24;;;;;;;35.22;32.50;;;;;;;;;;5049860;28;20498;-54
2024/02/03 08:47:50;;;;;;;37.55;34.65;;;;;;;;;;5043235;28;20083;-57
2024/02/03 08:50:16;;;;;;;36.28;33.47;;;;;;;;;;5049634;28;20025;-56
2024/02/03 08:52:42;;;;;;;36.70;33.90;;;;;;;;;;5064293;28;20037;-52
2024/02/03 08:55:08;;;;;;;37.42;34.53;;;;;;;;;;5041280;28;20105;-54
2024/02/03 08:57:34;;;;;;;36.50;33.70;;;;;;;;;;5029261;28;20033;-54
2024/02/03 09:00:00;;;;;;;36.90;34.10;;;;;;;;;;5029351;28;20021;-52
2024/02/03 09:02:27;;;;;;;36.45;33.65;;;;;;;;;;5028853;28;20039;-54
2024/02/03 09:04:53;;;;;;;38.45;35.55;;;;;;;;;;5047760;28;20479;-54
2024/02/03 09:07:19;;;;;;;37.35;34.45;;;;;;;;;;5049740;28;20104;-53
2024/02/03 09:09:45;;;;;;;36.70;33.90;;;;;;;;;;5049427;28;20398;-52
2024/02/03 09:12:11;;;;;;;36.97;34.17;;;;;;;;;;5048609;28;20037;-50
2024/02/03 09:14:37;;;;;;;36.80;34.00;;;;;;;;;;5049574;28;20380;-56
2024/02/03 09:17:03;;;;;;;36.42;33.63;;;;;;;;;;5049531;28;20024;-51
2024/02/03 09:19:29;;;;;;;35.75;32.95;;;;;;;;;;5049021;28;20518;-50
2024/02/03 09:21:55;;;;;;;33.60;31.00;;;;;;;;;;5030382;28;20110;-51
2024/02/03 09:24:21;;;;;;;33.63;31.02;;;;;;;;;;5029505;28;20029;-50
2024/02/03 09:26:47;;;;;;;32.63;30.02;;;;;;;;;;5029741;28;20373;-53
2024/02/03 09:29:13;;;;;;;32.30;29.77;;;;;;;;;;5029886;28;20097;-54
2024/02/03 09:31:39;;;;;;;32.22;29.73;;;;;;;;;;5029138;28;20025;-49
2024/02/03 09:34:05;;;;;;;31.25;28.75;;;;;;;;;;5030272;28;20052;-54
2024/02/03 09:36:31;;;;;;;30.63;28.23;;;;;;;;;;5029419;28;20028;-54
2024/02/03 09:38:58;;;;;;;29.80;27.40;;;;;;;;;;5040749;28;20503;-49
2024/02/03 09:41:24;;;;;;;27.27;25.08;;;;;;;;;;5035272;28;20025;-53
2024/02/03 09:43:51;;;;;;;24.90;22.85;;;;;;;;;;5028519;28;20029;-52
2024/02/03 09:46:20;;;;;;;24.00;22.00;;;;;;;;;;5028738;28;20167;-54
2024/02/03 09:48:46;;;;;;;23.38;21.38;;;;;;;;;;5045472;28;20075;-55
2024/02/03 09:51:12;;;;;;;23.00;21.00;;;;;;;;;;5048161;28;20056;-52
2024/02/03 09:53:39;;;;;;;22.90;20.90;;;;;;;;;;5048235;28;20024;-55
2024/02/03 09:56:07;;;;;;;23.33;21.33;;;;;;;;;;5048828;28;20391;-53
2024/02/03 09:58:33;;;;;;;23.13;21.13;;;;;;;;;;5048810;28;20364;-58
2024/02/03 10:00:59;;;;;;;23.65;21.65;;;;;;;;;;5048095;28;20045;-52
2024/02/03 10:03:25;;;;;;;22.90;20.90;;;;;;;;;;5048678;28;20025;-51
2024/02/03 10:06:00;;;;;;;22.63;20.67;;;;;;;;;;5049219;28;20025;-52
2024/02/03 10:08:27;;;;;;;21.92;20.02;;;;;;;;;;5049010;28;20112;-53
2024/02/03 10:10:53;;;;;;;22.27;20.38;;;;;;;;;;5050750;28;20083;-54
2024/02/03 10:13:19;;;;;;;22.67;20.67;;;;;;;;;;5052039;28;20025;-53
2024/02/03 10:15:45;;;;;;;22.05;20.15;;;;;;;;;;5052691;28;20017;-51
2024/02/03 10:18:12;;;;;;;22.13;20.23;;;;;;;;;;5052749;28;20121;-56
2024/02/03 10:20:38;;;;;;;21.75;19.85;;;;;;;;;;5052604;28;20076;-53
2024/02/03 10:23:04;;;;;;;22.30;20.40;;;;;;;;;;5050462;28;20025;-52
2024/02/03 10:25:31;;;;;;;22.88;20.88;;;;;;;;;;5052383;28;20036;-54
2024/02/03 10:28:03;;;;;;;22.77;20.77;;;;;;;;;;5052892;28;20505;-55
2024/02/03 10:30:30;;;;;;;23.10;21.10;;;;;;;;;;5052578;28;20317;-56
2024/02/03 10:32:58;;;;;;;22.50;20.60;;;;;;;;;;5051879;28;20048;-56
2024/02/03 10:35:27;;;;;;;22.45;20.55;;;;;;;;;;5052510;28;20021;-56
2024/02/03 10:37:53;;;;;;;21.65;19.75;;;;;;;;;;5052789;28;20116;-55
2024/02/03 10:40:18;;;;;;;21.05;19.15;;;;;;;;;;5052245;28;20021;-54
2024/02/03 10:42:46;;;;;;;20.77;18.88;;;;;;;;;;5051773;28;20056;-57
2024/02/03 10:45:13;;;;;;;20.55;18.65;;;;;;;;;;5051925;28;20252;-51
2024/02/03 10:47:42;;;;;;;20.75;18.85;;;;;;;;;;5067840;28;20478;-49
2024/02/03 10:50:10;;;;;;;20.80;18.90;;;;;;;;;;5052436;28;20021;-59
2024/02/03 10:52:36;;;;;;;20.40;18.50;;;;;;;;;;5050843;28;20055;-54
2024/02/03 10:55:03;;;;;;;20.35;18.45;;;;;;;;;;5052422;28;20028;-49
2024/02/03 10:57:29;;;;;;;20.33;18.42;;;;;;;;;;5052191;28;20041;-54
2024/02/03 11:00:02;;;;;;;19.98;18.17;;;;;;;;;;5051726;28;20021;-54
2024/02/03 11:02:28;;;;;;;19.80;18.00;;;;;;;;;;5051403;28;20096;-53
2024/02/03 11:04:56;;;;;;;19.38;17.58;;;;;;;;;;5051936;28;20049;-50
2024/02/03 11:07:23;;;;;;;18.75;16.95;;;;;;;;;;5062703;28;20033;-54
2024/02/03 11:09:53;;;;;;;18.98;17.17;;;;;;;;;;5053600;28;20547;-56
2024/02/03 11:12:20;;;;;;;18.48;16.67;;;;;;;;;;5046921;28;20113;-57
2024/02/03 11:14:46;;;;;;;18.67;16.88;;;;;;;;;;5030724;28;20022;-56
2024/02/03 11:17:13;;;;;;;18.08;16.27;;;;;;;;;;5031497;28;20053;-55
2024/02/03 11:19:39;;;;;;;17.95;16.15;;;;;;;;;;5031679;28;20428;-51
2024/02/03 11:22:06;;;;;;;17.85;16.05;;;;;;;;;;5031751;28;20041;-51
2024/02/03 11:24:36;;;;;;;17.60;15.90;;;;;;;;;;5051388;28;20092;-56
2024/02/03 11:27:03;;;;;;;17.00;15.30;;;;;;;;;;5047562;28;20053;-57
2024/02/03 11:29:29;;;;;;;16.90;15.20;;;;;;;;;;5040979;28;20026;-53
2024/02/03 11:32:05;;;;;;;17.13;15.43;;;;;;;;;;5035773;28;20498;-54
2024/02/03 11:34:32;;;;;;;17.25;15.55;;;;;;;;;;5039852;28;20554;-51
2024/02/03 11:37:02;;;;;;;17.15;15.45;;;;;;;;;;5030730;28;20059;-57
2024/02/03 11:39:28;;;;;;;17.33;15.63;;;;;;;;;;5030235;28;20025;-54
2024/02/03 11:41:54;;;;;;;17.15;15.45;;;;;;;;;;5028695;28;20498;-56
2024/02/03 11:44:21;;;;;;;16.98;15.27;;;;;;;;;;5033784;28;20082;-55
2024/02/03 11:46:47;;;;;;;16.55;14.85;;;;;;;;;;5040244;28;20404;-56
2024/02/03 11:49:14;;;;;;;16.75;15.05;;;;;;;;;;5046379;28;20024;-57
2024/02/03 11:51:40;;;;;;;15.98;14.27;;;;;;;;;;5040028;28;20031;-55
2024/02/03 11:54:06;;;;;;;15.75;14.05;;;;;;;;;;5050529;28;20130;-53
2024/02/03 11:56:33;;;;;;;15.20;13.43;;;;;;;;;;5055201;28;20022;-55
2024/02/03 11:58:58;;;;;;;15.20;13.38;;;;;;;;;;5050691;28;20021;-54
2024/02/03 12:01:27;;;;;;;15.20;13.32;;;;;;;;;;5050025;28;20025;-53
2024/02/03 12:03:53;;;;;;;;;;;;;;;;;;5043341;28;20079;-59
2024/02/03 12:06:21;;;;;;;15.10;12.90;;;;;;;;;;5030902;28;19909;-53
2024/02/03 12:08:47;;;;;;;15.00;12.65;;;;;;;;;;5029384;28;20461;-54
2024/02/03 12:11:13;;;;;;;14.20;10.48;;;;;;;;;;5043076;28;20036;-54
2024/02/03 12:13:40;;;;;;;14.18;10.43;;;;;;;;;;5047744;28;20402;-53
2024/02/03 12:16:08;;;;;;;14.20;10.40;;;;;;;;;;5040744;28;20120;-56
2024/02/03 12:18:36;;;;;;;14.20;10.38;;;;;;;;;;5038714;28;20049;-54
2024/02/03 12:21:02;;;;;;;13.82;9.38;;;;;;;;;;5046791;28;20025;-53
2024/02/03 12:23:28;;;;;;;13.77;9.27;;;;;;;;;;5049726;28;20494;-55
2024/02/03 12:25:54;;;;;;;13.60;8.95;;;;;;;;;;5065478;28;20383;-54
2024/02/03 12:28:23;;;;;;;13.57;8.95;;;;;;;;;;5049697;28;20105;-53
2024/02/03 12:30:58;;;;;;;13.77;9.32;;;;;;;;;;5050336;28;20040;-52
2024/02/03 12:33:24;;;;;;;13.80;9.40;;;;;;;;;;5048320;28;20487;-50
2024/02/03 12:35:51;;;;;;;14.05;10.15;;;;;;;;;;5049870;28;20112;-57
2024/02/03 12:38:20;;;;;;;14.85;12.60;;;;;;;;;;5065084;28;20109;-55
2024/02/03 12:40:45;;;;;;;14.85;12.70;;;;;;;;;;5049736;28;20049;-50
2024/02/03 12:43:11;;;;;;;15.20;13.57;;;;;;;;;;5049384;28;20096;-53
2024/02/03 12:45:38;;;;;;;15.57;13.88;;;;;;;;;;5049538;28;20025;-53
2024/02/03 12:48:04;;;;;;;15.90;14.20;;;;;;;;;;5049828;28;20135;-53
2024/02/03 12:50:32;;;;;;;16.38;14.68;;;;;;;;;;5049572;28;20024;-53
2024/02/03 12:52:58;;;;;;;17.90;16.20;;;;;;;;;;5049233;28;20475;-52
2024/02/03 12:55:24;;;;;;;17.25;15.55;;;;;;;;;;5049775;28;20458;-53
2024/02/03 12:57:51;;;;;;;17.20;15.50;;;;;;;;;;5050034;28;20063;-55
2024/02/03 13:00:17;;;;;;;16.67;14.98;;;;;;;;;;5049757;28;20032;-55
2024/02/03 13:02:43;;;;;;;16.38;14.68;;;;;;;;;;5049160;28;20036;-48
2024/02/03 13:05:09;;;;;;;16.13;14.43;;;;;;;;;;5049903;28;20043;-53
2024/02/03 13:07:35;;;;;;;15.88;14.18;;;;;;;;;;5049730;28;20029;-54
2024/02/03 13:10:01;;;;;;;16.15;14.45;;;;;;;;;;5050041;28;20025;-51
2024/02/03 13:12:27;;;;;;;16.95;15.25;;;;;;;;;;5048063;28;20039;-53
2024/02/03 13:14:53;;;;;;;16.80;15.10;;;;;;;;;;5048924;28;20025;-55
2024/02/03 13:17:19;;;;;;;16.80;15.10;;;;;;;;;;5049906;28;20104;-54
2024/02/03 13:19:45;;;;;;;16.13;14.43;;;;;;;;;;5049441;28;20574;-52
2024/02/03 13:22:14;;;;;;;16.65;14.95;;;;;;;;;;5048842;28;20033;-46
2024/02/03 13:24:40;;;;;;;17.15;15.45;;;;;;;;;;5049273;28;20159;-51
2024/02/03 13:27:07;;;;;;;17.20;15.50;;;;;;;;;;5049208;28;20079;-56
2024/02/03 13:29:33;;;;;;;19.38;17.58;;;;;;;;;;5049313;28;20029;-54
2024/02/03 13:31:59;;;;;;;18.10;16.35;;;;;;;;;;5047302;28;20343;-54
2024/02/03 13:34:25;;;;;;;17.85;16.15;;;;;;;;;;5049321;28;20023;-58
2024/02/03 13:36:51;;;;;;;17.83;16.13;;;;;;;;;;5049137;28;20032;-54
2024/02/03 13:39:17;;;;;;;17.50;15.80;;;;;;;;;;5046968;28;20071;-54
2024/02/03 13:41:43;;;;;;;17.83;16.13;;;;;;;;;;5036518;28;20029;-55
2024/02/03 13:44:09;;;;;;;16.73;15.02;;;;;;;;;;5032829;28;20037;-54
2024/02/03 13:46:35;;;;;;;16.23;14.52;;;;;;;;;;5033235;28;20021;-51
2024/02/03 13:49:02;;;;;;;15.63;13.93;;;;;;;;;;5050543;28;20025;-52
2024/02/03 13:51:28;;;;;;;14.95;12.85;;;;;;;;;;5050861;28;20035;-53
2024/02/03 13:53:54;;;;;;;14.85;12.63;;;;;;;;;;5052884;28;20024;-53
2024/02/03 13:56:21;;;;;;;14.70;12.18;;;;;;;;;;5053175;28;20106;-54
2024/02/03 13:58:50;;;;;;;14.60;11.85;;;;;;;;;;5051777;28;20441;-56
2024/02/03 14:01:16;;;;;;;14.38;11.13;;;;;;;;;;5052196;28;20224;-53
2024/02/03 14:03:43;;;;;;;14.23;10.75;;;;;;;;;;5052440;28;20072;-50
2024/02/03 14:06:08;;;;;;;14.18;10.43;;;;;;;;;;5052750;28;20108;-56
2024/02/03 14:08:34;;;;;;;14.23;10.60;;;;;;;;;;5052870;28;20122;-55
2024/02/03 14:11:02;;;;;;;14.30;10.68;;;;;;;;;;5052420;28;20025;-53
2024/02/03 14:13:28;;;;;;;14.18;10.48;;;;;;;;;;5052333;28;20215;-53